sensor_id;sensor_type;location;lat;lon;timestamp;temperature;humidity
31725;DHT22;18306;40.960;14.836;2023-03-16T00:02:05;11.50;99.90
31725;DHT22;18306;40.960;14.836;2023-03-16T00:04:32;11.40;99.90
31725;DHT22;18306;40.960;14.836;2023-03-16T00:07:07;11.40;99.90
31725;DHT22;18306;40.960;14.836;2023-03-16T00:09:35;11.10;99.90
31725;DHT22;18306;40.960;14.836;2023-03-16T00:12:15;11.00;99.90
31725;DHT22;18306;40.960;14.836;2023-03-16T00:14:45;10.90;99.90
31725;DHT22;18306;40.960;14.836;2023-03-16T00:17:14;10.80;99.90
31725;DHT22;18306;40.960;14.836;2023-03-16T00:19:51;10.70;99.90
31725;DHT22;18306;40.960;14.836;2023-03-16T00:22:24;10.70;99.90
31725;DHT22;18306;40.960;14.836;2023-03-16T00:24:52;10.70;99.90
31725;DHT22;18306;40.960;14.836;2023-03-16T00:27:21;10.60;99.90
31725;DHT22;18306;40.960;14.836;2023-03-16T00:29:50;10.60;99.90
31725;DHT22;18306;40.960;14.836;2023-03-16T00:32:26;10.70;99.90
31725;DHT22;18306;40.960;14.836;2023-03-16T00:34:54;10.80;99.90
31725;DHT22;18306;40.960;14.836;2023-03-16T00:37:22;11.00;99.90
31725;DHT22;18306;40.960;14.836;2023-03-16T00:39:51;11.00;99.90
31725;DHT22;18306;40.960;14.836;2023-03-16T00:42:27;11.00;99.90
31725;DHT22;18306;40.960;14.836;2023-03-16T00:44:58;11.00;99.90
31725;DHT22;18306;40.960;14.836;2023-03-16T00:47:33;10.90;99.90
31725;DHT22;18306;40.960;14.836;2023-03-16T00:50:07;10.80;99.90
31725;DHT22;18306;40.960;14.836;2023-03-16T00:52:35;10.80;99.90
31725;DHT22;18306;40.960;14.836;2023-03-16T00:55:04;10.70;99.90
31725;DHT22;18306;40.960;14.836;2023-03-16T00:57:31;10.70;99.90
31725;DHT22;18306;40.960;14.836;2023-03-16T00:59:59;10.50;99.90
31725;DHT22;18306;40.960;14.836;2023-03-16T01:02:32;10.40;99.90
31725;DHT22;18306;40.960;14.836;2023-03-16T01:05:06;10.60;99.90
31725;DHT22;18306;40.960;14.836;2023-03-16T01:07:36;10.70;99.90
31725;DHT22;18306;40.960;14.836;2023-03-16T01:10:04;10.60;99.90
31725;DHT22;18306;40.960;14.836;2023-03-16T01:12:34;10.50;99.90
31725;DHT22;18306;40.960;14.836;2023-03-16T01:15:30;10.50;99.90
31725;DHT22;18306;40.960;14.836;2023-03-16T01:18:09;10.50;99.90
31725;DHT22;18306;40.960;14.836;2023-03-16T01:20:40;10.60;99.90
31725;DHT22;18306;40.960;14.836;2023-03-16T01:23:23;10.60;99.90
31725;DHT22;18306;40.960;14.836;2023-03-16T01:25:53;10.60;99.90
31725;DHT22;18306;40.960;14.836;2023-03-16T01:28:23;10.70;99.90
31725;DHT22;18306;40.960;14.836;2023-03-16T01:30:54;10.70;99.90
31725;DHT22;18306;40.960;14.836;2023-03-16T01:33:24;10.70;99.90
31725;DHT22;18306;40.960;14.836;2023-03-16T01:36:04;10.60;99.90
31725;DHT22;18306;40.960;14.836;2023-03-16T01:38:40;10.70;99.90
31725;DHT22;18306;40.960;14.836;2023-03-16T01:41:08;10.60;99.90
31725;DHT22;18306;40.960;14.836;2023-03-16T01:43:39;10.60;99.90
31725;DHT22;18306;40.960;14.836;2023-03-16T01:48:46;10.30;99.90
31725;DHT22;18306;40.960;14.836;2023-03-16T01:54:33;10.40;99.90
31725;DHT22;18306;40.960;14.836;2023-03-16T01:57:16;10.60;99.90
31725;DHT22;18306;40.960;14.836;2023-03-16T02:02:20;10.40;99.90
31725;DHT22;18306;40.960;14.836;2023-03-16T02:05:04;10.30;99.90
31725;DHT22;18306;40.960;14.836;2023-03-16T02:07:39;10.40;99.90
31725;DHT22;18306;40.960;14.836;2023-03-16T02:10:10;10.40;99.90
31725;DHT22;18306;40.960;14.836;2023-03-16T02:12:39;10.30;99.90
31725;DHT22;18306;40.960;14.836;2023-03-16T02:15:07;10.20;99.90
31725;DHT22;18306;40.960;14.836;2023-03-16T02:17:35;10.10;99.90
31725;DHT22;18306;40.960;14.836;2023-03-16T02:20:53;9.90;99.90
31725;DHT22;18306;40.960;14.836;2023-03-16T02:23:27;9.90;99.90
31725;DHT22;18306;40.960;14.836;2023-03-16T02:26:11;9.80;99.90
31725;DHT22;18306;40.960;14.836;2023-03-16T02:28:52;9.80;99.90
31725;DHT22;18306;40.960;14.836;2023-03-16T02:31:29;9.90;99.90
31725;DHT22;18306;40.960;14.836;2023-03-16T02:33:56;9.90;99.90
31725;DHT22;18306;40.960;14.836;2023-03-16T02:36:25;9.90;99.90
31725;DHT22;18306;40.960;14.836;2023-03-16T02:38:53;9.90;99.90
31725;DHT22;18306;40.960;14.836;2023-03-16T02:41:22;9.90;99.90
31725;DHT22;18306;40.960;14.836;2023-03-16T02:44:11;9.70;99.90
31725;DHT22;18306;40.960;14.836;2023-03-16T02:46:42;9.60;99.90
31725;DHT22;18306;40.960;14.836;2023-03-16T02:49:31;9.60;99.90
31725;DHT22;18306;40.960;14.836;2023-03-16T02:51:59;9.70;99.90
31725;DHT22;18306;40.960;14.836;2023-03-16T02:54:27;9.80;99.90
31725;DHT22;18306;40.960;14.836;2023-03-16T02:56:54;9.90;99.90
31725;DHT22;18306;40.960;14.836;2023-03-16T02:59:25;10.00;99.90
31725;DHT22;18306;40.960;14.836;2023-03-16T03:01:52;10.00;99.90
31725;DHT22;18306;40.960;14.836;2023-03-16T03:04:19;9.90;99.90
31725;DHT22;18306;40.960;14.836;2023-03-16T03:06:50;10.00;99.90
31725;DHT22;18306;40.960;14.836;2023-03-16T03:09:18;9.80;99.90
31725;DHT22;18306;40.960;14.836;2023-03-16T03:11:46;9.80;99.90
31725;DHT22;18306;40.960;14.836;2023-03-16T03:14:14;9.80;99.90
31725;DHT22;18306;40.960;14.836;2023-03-16T03:16:43;9.80;99.90
31725;DHT22;18306;40.960;14.836;2023-03-16T03:19:13;9.80;99.90
31725;DHT22;18306;40.960;14.836;2023-03-16T03:21:40;9.70;99.90
31725;DHT22;18306;40.960;14.836;2023-03-16T03:24:08;9.70;99.90
31725;DHT22;18306;40.960;14.836;2023-03-16T03:26:35;9.70;99.90
31725;DHT22;18306;40.960;14.836;2023-03-16T03:29:10;9.90;99.90
31725;DHT22;18306;40.960;14.836;2023-03-16T03:31:38;9.90;99.90
31725;DHT22;18306;40.960;14.836;2023-03-16T03:34:06;9.90;99.90
31725;DHT22;18306;40.960;14.836;2023-03-16T03:36:35;9.90;99.90
31725;DHT22;18306;40.960;14.836;2023-03-16T03:39:03;10.00;99.90
31725;DHT22;18306;40.960;14.836;2023-03-16T03:41:32;10.00;99.90
31725;DHT22;18306;40.960;14.836;2023-03-16T03:44:01;10.00;99.90
31725;DHT22;18306;40.960;14.836;2023-03-16T03:46:29;10.00;99.90
31725;DHT22;18306;40.960;14.836;2023-03-16T03:48:56;10.00;99.90
31725;DHT22;18306;40.960;14.836;2023-03-16T03:51:32;10.00;99.90
31725;DHT22;18306;40.960;14.836;2023-03-16T03:54:05;10.00;99.90
31725;DHT22;18306;40.960;14.836;2023-03-16T03:56:48;10.00;99.90
31725;DHT22;18306;40.960;14.836;2023-03-16T03:59:16;10.20;99.90
31725;DHT22;18306;40.960;14.836;2023-03-16T04:01:59;10.10;99.90
31725;DHT22;18306;40.960;14.836;2023-03-16T04:04:36;10.20;99.90
31725;DHT22;18306;40.960;14.836;2023-03-16T04:07:03;10.30;99.90
31725;DHT22;18306;40.960;14.836;2023-03-16T04:09:30;10.30;99.90
31725;DHT22;18306;40.960;14.836;2023-03-16T04:12:02;10.40;99.90
31725;DHT22;18306;40.960;14.836;2023-03-16T04:14:30;10.40;99.90
31725;DHT22;18306;40.960;14.836;2023-03-16T04:17:00;10.40;99.90
31725;DHT22;18306;40.960;14.836;2023-03-16T04:19:27;10.40;99.90
31725;DHT22;18306;40.960;14.836;2023-03-16T04:21:55;10.40;99.90
31725;DHT22;18306;40.960;14.836;2023-03-16T04:24:22;10.40;99.90
31725;DHT22;18306;40.960;14.836;2023-03-16T04:26:49;10.40;99.90
31725;DHT22;18306;40.960;14.836;2023-03-16T04:29:16;10.30;99.90
31725;DHT22;18306;40.960;14.836;2023-03-16T04:31:44;10.30;99.90
31725;DHT22;18306;40.960;14.836;2023-03-16T04:34:12;10.30;99.90
31725;DHT22;18306;40.960;14.836;2023-03-16T04:36:39;10.30;99.90
31725;DHT22;18306;40.960;14.836;2023-03-16T04:39:08;10.40;99.90
31725;DHT22;18306;40.960;14.836;2023-03-16T04:41:36;10.40;99.90
31725;DHT22;18306;40.960;14.836;2023-03-16T04:44:11;10.40;99.90
31725;DHT22;18306;40.960;14.836;2023-03-16T04:46:40;10.40;99.90
31725;DHT22;18306;40.960;14.836;2023-03-16T04:49:09;10.00;99.90
31725;DHT22;18306;40.960;14.836;2023-03-16T04:51:37;9.90;99.90
31725;DHT22;18306;40.960;14.836;2023-03-16T04:54:12;10.10;99.90
31725;DHT22;18306;40.960;14.836;2023-03-16T04:56:42;10.10;99.90
31725;DHT22;18306;40.960;14.836;2023-03-16T04:59:21;10.10;99.90
31725;DHT22;18306;40.960;14.836;2023-03-16T05:01:57;9.90;99.90
31725;DHT22;18306;40.960;14.836;2023-03-16T05:04:25;9.90;99.90
31725;DHT22;18306;40.960;14.836;2023-03-16T05:06:52;9.90;99.90
31725;DHT22;18306;40.960;14.836;2023-03-16T05:09:24;9.90;99.90
31725;DHT22;18306;40.960;14.836;2023-03-16T05:11:51;9.90;99.90
31725;DHT22;18306;40.960;14.836;2023-03-16T05:14:18;10.00;99.90
31725;DHT22;18306;40.960;14.836;2023-03-16T05:16:58;10.10;99.90
31725;DHT22;18306;40.960;14.836;2023-03-16T05:19:25;10.10;99.90
31725;DHT22;18306;40.960;14.836;2023-03-16T05:21:53;10.00;99.90
31725;DHT22;18306;40.960;14.836;2023-03-16T05:24:20;10.00;99.90
31725;DHT22;18306;40.960;14.836;2023-03-16T05:26:47;10.20;99.90
31725;DHT22;18306;40.960;14.836;2023-03-16T05:29:16;10.20;99.90
31725;DHT22;18306;40.960;14.836;2023-03-16T05:31:45;10.30;99.90
31725;DHT22;18306;40.960;14.836;2023-03-16T05:34:16;10.30;99.80
31725;DHT22;18306;40.960;14.836;2023-03-16T05:36:42;10.30;99.70
31725;DHT22;18306;40.960;14.836;2023-03-16T05:39:15;10.20;99.60
31725;DHT22;18306;40.960;14.836;2023-03-16T05:41:46;10.10;99.60
31725;DHT22;18306;40.960;14.836;2023-03-16T05:44:22;9.90;99.90
31725;DHT22;18306;40.960;14.836;2023-03-16T05:47:10;10.00;99.60
31725;DHT22;18306;40.960;14.836;2023-03-16T05:49:42;9.90;99.70
31725;DHT22;18306;40.960;14.836;2023-03-16T05:52:19;9.80;99.90
31725;DHT22;18306;40.960;14.836;2023-03-16T05:54:46;9.90;99.40
31725;DHT22;18306;40.960;14.836;2023-03-16T05:57:13;9.70;99.40
31725;DHT22;18306;40.960;14.836;2023-03-16T05:59:43;9.80;99.70
31725;DHT22;18306;40.960;14.836;2023-03-16T06:02:11;9.80;99.40
31725;DHT22;18306;40.960;14.836;2023-03-16T06:04:38;9.70;99.60
31725;DHT22;18306;40.960;14.836;2023-03-16T06:07:05;9.70;99.30
31725;DHT22;18306;40.960;14.836;2023-03-16T06:09:34;9.60;98.90
31725;DHT22;18306;40.960;14.836;2023-03-16T06:12:06;9.70;98.90
31725;DHT22;18306;40.960;14.836;2023-03-16T06:14:34;9.80;98.90
31725;DHT22;18306;40.960;14.836;2023-03-16T06:17:02;9.80;98.80
31725;DHT22;18306;40.960;14.836;2023-03-16T06:19:30;9.90;98.70
31725;DHT22;18306;40.960;14.836;2023-03-16T06:22:00;9.90;98.50
31725;DHT22;18306;40.960;14.836;2023-03-16T06:24:27;9.90;98.30
31725;DHT22;18306;40.960;14.836;2023-03-16T06:26:54;10.10;98.30
31725;DHT22;18306;40.960;14.836;2023-03-16T06:29:28;10.30;98.10
31725;DHT22;18306;40.960;14.836;2023-03-16T06:31:57;10.50;98.30
31725;DHT22;18306;40.960;14.836;2023-03-16T06:34:24;10.90;97.70
31725;DHT22;18306;40.960;14.836;2023-03-16T06:36:51;11.00;97.20
31725;DHT22;18306;40.960;14.836;2023-03-16T06:39:19;11.20;97.20
31725;DHT22;18306;40.960;14.836;2023-03-16T06:41:49;11.20;97.00
31725;DHT22;18306;40.960;14.836;2023-03-16T06:44:17;11.10;96.90
31725;DHT22;18306;40.960;14.836;2023-03-16T06:46:57;11.00;97.10
31725;DHT22;18306;40.960;14.836;2023-03-16T06:49:24;11.10;97.10
31725;DHT22;18306;40.960;14.836;2023-03-16T06:51:52;11.00;97.10
31725;DHT22;18306;40.960;14.836;2023-03-16T06:54:20;11.00;97.00
31725;DHT22;18306;40.960;14.836;2023-03-16T06:56:48;11.00;96.60
31725;DHT22;18306;40.960;14.836;2023-03-16T06:59:15;11.00;97.00
31725;DHT22;18306;40.960;14.836;2023-03-16T07:01:42;11.10;96.50
31725;DHT22;18306;40.960;14.836;2023-03-16T07:04:10;11.00;97.00
31725;DHT22;18306;40.960;14.836;2023-03-16T07:06:40;10.90;96.80
31725;DHT22;18306;40.960;14.836;2023-03-16T07:09:07;10.70;96.50
31725;DHT22;18306;40.960;14.836;2023-03-16T07:11:35;10.60;96.80
31725;DHT22;18306;40.960;14.836;2023-03-16T07:14:02;10.60;97.10
31725;DHT22;18306;40.960;14.836;2023-03-16T07:16:31;10.70;97.30
31725;DHT22;18306;40.960;14.836;2023-03-16T07:19:02;10.90;96.90
31725;DHT22;18306;40.960;14.836;2023-03-16T07:21:29;10.70;96.80
31725;DHT22;18306;40.960;14.836;2023-03-16T07:24:08;10.60;96.60
31725;DHT22;18306;40.960;14.836;2023-03-16T07:26:37;10.80;97.00
31725;DHT22;18306;40.960;14.836;2023-03-16T07:29:05;11.30;97.30
31725;DHT22;18306;40.960;14.836;2023-03-16T07:31:33;11.40;96.30
31725;DHT22;18306;40.960;14.836;2023-03-16T07:34:04;11.70;95.60
31725;DHT22;18306;40.960;14.836;2023-03-16T07:36:37;12.50;95.00
31725;DHT22;18306;40.960;14.836;2023-03-16T07:39:04;13.20;94.30
31725;DHT22;18306;40.960;14.836;2023-03-16T07:41:34;13.40;93.10
31725;DHT22;18306;40.960;14.836;2023-03-16T07:44:28;13.80;93.90
31725;DHT22;18306;40.960;14.836;2023-03-16T07:46:57;14.30;93.60
31725;DHT22;18306;40.960;14.836;2023-03-16T07:49:27;14.10;92.20
31725;DHT22;18306;40.960;14.836;2023-03-16T07:51:55;13.90;91.50
31725;DHT22;18306;40.960;14.836;2023-03-16T07:54:28;13.90;92.90
31725;DHT22;18306;40.960;14.836;2023-03-16T07:56:57;14.00;91.60
31725;DHT22;18306;40.960;14.836;2023-03-16T07:59:44;14.20;92.00
31725;DHT22;18306;40.960;14.836;2023-03-16T08:02:20;14.70;92.70
31725;DHT22;18306;40.960;14.836;2023-03-16T08:04:57;15.30;90.50
31725;DHT22;18306;40.960;14.836;2023-03-16T08:07:30;15.10;90.30
31725;DHT22;18306;40.960;14.836;2023-03-16T08:10:05;14.80;90.90
31725;DHT22;18306;40.960;14.836;2023-03-16T08:12:40;14.60;91.20
31725;DHT22;18306;40.960;14.836;2023-03-16T08:15:09;14.60;91.60
31725;DHT22;18306;40.960;14.836;2023-03-16T08:17:36;14.50;90.80
31725;DHT22;18306;40.960;14.836;2023-03-16T08:20:13;14.00;90.90
31725;DHT22;18306;40.960;14.836;2023-03-16T08:22:42;13.70;92.30
31725;DHT22;18306;40.960;14.836;2023-03-16T08:25:13;13.50;91.50
31725;DHT22;18306;40.960;14.836;2023-03-16T08:27:48;13.50;91.80
31725;DHT22;18306;40.960;14.836;2023-03-16T08:30:16;13.30;90.80
31725;DHT22;18306;40.960;14.836;2023-03-16T08:32:51;13.20;91.00
31725;DHT22;18306;40.960;14.836;2023-03-16T08:35:18;13.20;91.50
31725;DHT22;18306;40.960;14.836;2023-03-16T08:37:45;13.40;91.30
31725;DHT22;18306;40.960;14.836;2023-03-16T08:40:13;13.40;90.50
31725;DHT22;18306;40.960;14.836;2023-03-16T08:42:42;13.20;90.30
31725;DHT22;18306;40.960;14.836;2023-03-16T08:45:11;13.10;90.30
31725;DHT22;18306;40.960;14.836;2023-03-16T08:47:39;13.00;90.30
31725;DHT22;18306;40.960;14.836;2023-03-16T08:50:08;12.80;90.30
31725;DHT22;18306;40.960;14.836;2023-03-16T08:52:35;13.00;91.20
31725;DHT22;18306;40.960;14.836;2023-03-16T08:55:04;13.10;89.40
31725;DHT22;18306;40.960;14.836;2023-03-16T08:57:32;13.20;90.90
31725;DHT22;18306;40.960;14.836;2023-03-16T09:00:00;12.80;91.50
31725;DHT22;18306;40.960;14.836;2023-03-16T09:02:27;12.80;90.80
31725;DHT22;18306;40.960;14.836;2023-03-16T09:04:54;13.00;90.90
31725;DHT22;18306;40.960;14.836;2023-03-16T09:07:21;13.10;91.00
31725;DHT22;18306;40.960;14.836;2023-03-16T09:09:49;13.30;91.20
31725;DHT22;18306;40.960;14.836;2023-03-16T09:12:16;13.50;90.10
31725;DHT22;18306;40.960;14.836;2023-03-16T09:14:44;13.50;90.20
31725;DHT22;18306;40.960;14.836;2023-03-16T09:17:11;13.30;90.60
31725;DHT22;18306;40.960;14.836;2023-03-16T09:19:38;13.40;90.40
31725;DHT22;18306;40.960;14.836;2023-03-16T09:22:06;13.40;90.30
31725;DHT22;18306;40.960;14.836;2023-03-16T09:24:33;13.70;89.40
31725;DHT22;18306;40.960;14.836;2023-03-16T09:26:59;13.70;86.10
31725;DHT22;18306;40.960;14.836;2023-03-16T09:29:27;13.60;84.80
31725;DHT22;18306;40.960;14.836;2023-03-16T09:31:54;13.70;86.60
31725;DHT22;18306;40.960;14.836;2023-03-16T09:34:21;13.70;85.00
31725;DHT22;18306;40.960;14.836;2023-03-16T09:36:48;13.60;84.80
31725;DHT22;18306;40.960;14.836;2023-03-16T09:39:16;13.50;86.00
31725;DHT22;18306;40.960;14.836;2023-03-16T09:41:47;13.80;88.20
31725;DHT22;18306;40.960;14.836;2023-03-16T09:46:49;13.80;84.90
31725;DHT22;18306;40.960;14.836;2023-03-16T09:49:19;13.70;82.80
31725;DHT22;18306;40.960;14.836;2023-03-16T09:51:58;13.60;80.10
31725;DHT22;18306;40.960;14.836;2023-03-16T09:54:30;13.50;79.60
31725;DHT22;18306;40.960;14.836;2023-03-16T09:56:59;13.30;81.10
31725;DHT22;18306;40.960;14.836;2023-03-16T09:59:27;13.20;81.10
31725;DHT22;18306;40.960;14.836;2023-03-16T10:02:38;13.40;81.50
31725;DHT22;18306;40.960;14.836;2023-03-16T10:05:08;13.50;81.00
31725;DHT22;18306;40.960;14.836;2023-03-16T10:10:49;13.90;80.40
31725;DHT22;18306;40.960;14.836;2023-03-16T10:15:51;13.80;77.20
31725;DHT22;18306;40.960;14.836;2023-03-16T10:18:34;13.60;77.20
31725;DHT22;18306;40.960;14.836;2023-03-16T10:21:14;13.80;81.30
31725;DHT22;18306;40.960;14.836;2023-03-16T10:23:52;13.90;81.20
31725;DHT22;18306;40.960;14.836;2023-03-16T10:26:29;13.80;79.80
31725;DHT22;18306;40.960;14.836;2023-03-16T10:28:59;13.90;80.40
31725;DHT22;18306;40.960;14.836;2023-03-16T10:31:26;13.90;76.80
31725;DHT22;18306;40.960;14.836;2023-03-16T10:34:01;13.90;80.50
31725;DHT22;18306;40.960;14.836;2023-03-16T10:36:32;14.10;80.00
31725;DHT22;18306;40.960;14.836;2023-03-16T10:39:08;14.20;79.50
31725;DHT22;18306;40.960;14.836;2023-03-16T10:41:37;14.30;78.70
31725;DHT22;18306;40.960;14.836;2023-03-16T10:44:21;14.20;78.50
31725;DHT22;18306;40.960;14.836;2023-03-16T10:47:03;14.40;81.80
31725;DHT22;18306;40.960;14.836;2023-03-16T10:49:38;14.30;80.00
31725;DHT22;18306;40.960;14.836;2023-03-16T10:52:39;13.80;80.20
31725;DHT22;18306;40.960;14.836;2023-03-16T10:55:17;14.00;83.00
31725;DHT22;18306;40.960;14.836;2023-03-16T10:57:51;14.20;81.80
31725;DHT22;18306;40.960;14.836;2023-03-16T11:02:56;14.30;81.90
31725;DHT22;18306;40.960;14.836;2023-03-16T11:05:31;14.30;81.60
31725;DHT22;18306;40.960;14.836;2023-03-16T11:08:13;14.30;81.50
31725;DHT22;18306;40.960;14.836;2023-03-16T11:10:57;14.20;81.80
31725;DHT22;18306;40.960;14.836;2023-03-16T11:13:34;14.20;84.20
31725;DHT22;18306;40.960;14.836;2023-03-16T11:16:42;14.00;82.80
31725;DHT22;18306;40.960;14.836;2023-03-16T11:22:03;14.30;85.10
31725;DHT22;18306;40.960;14.836;2023-03-16T11:28:31;14.50;84.90
31725;DHT22;18306;40.960;14.836;2023-03-16T11:30:52;14.30;83.20
31725;DHT22;18306;40.960;14.836;2023-03-16T11:33:25;14.40;84.30
31725;DHT22;18306;40.960;14.836;2023-03-16T11:41:27;14.60;82.20
31725;DHT22;18306;40.960;14.836;2023-03-16T11:44:21;14.20;82.70
31725;DHT22;18306;40.960;14.836;2023-03-16T11:47:16;14.00;85.10
31725;DHT22;18306;40.960;14.836;2023-03-16T11:52:43;14.30;85.10
31725;DHT22;18306;40.960;14.836;2023-03-16T11:55:25;14.40;82.30
31725;DHT22;18306;40.960;14.836;2023-03-16T11:58:18;14.30;82.40
31725;DHT22;18306;40.960;14.836;2023-03-16T12:04:07;14.50;81.80
31725;DHT22;18306;40.960;14.836;2023-03-16T12:12:28;14.10;81.60
31725;DHT22;18306;40.960;14.836;2023-03-16T12:17:47;14.30;83.40
31725;DHT22;18306;40.960;14.836;2023-03-16T12:20:34;14.50;82.20
31725;DHT22;18306;40.960;14.836;2023-03-16T12:23:09;14.50;80.10
31725;DHT22;18306;40.960;14.836;2023-03-16T12:25:47;14.50;79.90
31725;DHT22;18306;40.960;14.836;2023-03-16T12:28:25;14.40;82.00
31725;DHT22;18306;40.960;14.836;2023-03-16T12:36:46;14.20;83.00
31725;DHT22;18306;40.960;14.836;2023-03-16T12:45:02;14.00;82.40
31725;DHT22;18306;40.960;14.836;2023-03-16T12:47:48;14.20;84.00
31725;DHT22;18306;40.960;14.836;2023-03-16T12:50:53;14.50;84.60
31725;DHT22;18306;40.960;14.836;2023-03-16T12:59:19;14.60;80.10
31725;DHT22;18306;40.960;14.836;2023-03-16T13:01:55;14.50;80.60
31725;DHT22;18306;40.960;14.836;2023-03-16T13:04:31;14.50;83.40
31725;DHT22;18306;40.960;14.836;2023-03-16T13:07:08;14.20;81.10
31725;DHT22;18306;40.960;14.836;2023-03-16T13:09:45;14.20;81.60
31725;DHT22;18306;40.960;14.836;2023-03-16T13:12:33;14.20;81.50
31725;DHT22;18306;40.960;14.836;2023-03-16T13:17:49;14.30;81.60
31725;DHT22;18306;40.960;14.836;2023-03-16T13:20:30;14.20;81.20
31725;DHT22;18306;40.960;14.836;2023-03-16T13:23:23;14.10;82.30
31725;DHT22;18306;40.960;14.836;2023-03-16T13:26:15;14.10;79.80
31725;DHT22;18306;40.960;14.836;2023-03-16T13:28:49;14.10;82.50
31725;DHT22;18306;40.960;14.836;2023-03-16T13:31:27;14.10;81.00
31725;DHT22;18306;40.960;14.836;2023-03-16T13:33:59;14.20;81.30
31725;DHT22;18306;40.960;14.836;2023-03-16T13:36:28;14.20;79.70
31725;DHT22;18306;40.960;14.836;2023-03-16T13:39:05;14.10;82.50
31725;DHT22;18306;40.960;14.836;2023-03-16T13:41:32;14.00;80.70
31725;DHT22;18306;40.960;14.836;2023-03-16T13:44:00;14.00;80.10
31725;DHT22;18306;40.960;14.836;2023-03-16T13:46:28;13.90;82.70
31725;DHT22;18306;40.960;14.836;2023-03-16T13:48:57;13.90;82.00
31725;DHT22;18306;40.960;14.836;2023-03-16T13:51:33;14.00;81.90
31725;DHT22;18306;40.960;14.836;2023-03-16T13:54:21;14.00;79.00
31725;DHT22;18306;40.960;14.836;2023-03-16T13:57:01;14.20;81.00
31725;DHT22;18306;40.960;14.836;2023-03-16T13:59:32;14.30;81.10
31725;DHT22;18306;40.960;14.836;2023-03-16T14:02:00;14.30;80.80
31725;DHT22;18306;40.960;14.836;2023-03-16T14:04:31;14.30;80.00
31725;DHT22;18306;40.960;14.836;2023-03-16T14:07:01;14.30;80.30
31725;DHT22;18306;40.960;14.836;2023-03-16T14:09:34;14.30;80.40
31725;DHT22;18306;40.960;14.836;2023-03-16T14:12:01;14.30;80.80
31725;DHT22;18306;40.960;14.836;2023-03-16T14:14:36;14.20;82.40
31725;DHT22;18306;40.960;14.836;2023-03-16T14:17:09;14.30;81.00
31725;DHT22;18306;40.960;14.836;2023-03-16T14:19:44;14.00;79.10
31725;DHT22;18306;40.960;14.836;2023-03-16T14:22:14;14.00;79.40
31725;DHT22;18306;40.960;14.836;2023-03-16T14:24:43;14.00;80.00
31725;DHT22;18306;40.960;14.836;2023-03-16T14:27:25;14.10;80.40
31725;DHT22;18306;40.960;14.836;2023-03-16T14:30:14;13.90;81.20
31725;DHT22;18306;40.960;14.836;2023-03-16T14:32:41;13.80;80.20
31725;DHT22;18306;40.960;14.836;2023-03-16T14:35:20;13.80;80.30
31725;DHT22;18306;40.960;14.836;2023-03-16T14:37:47;13.80;81.70
31725;DHT22;18306;40.960;14.836;2023-03-16T14:40:31;13.90;80.50
31725;DHT22;18306;40.960;14.836;2023-03-16T14:43:01;14.10;81.90
31725;DHT22;18306;40.960;14.836;2023-03-16T14:45:33;14.00;82.00
31725;DHT22;18306;40.960;14.836;2023-03-16T14:48:11;14.10;81.90
31725;DHT22;18306;40.960;14.836;2023-03-16T14:50:52;14.10;80.00
31725;DHT22;18306;40.960;14.836;2023-03-16T14:53:28;13.70;80.80
31725;DHT22;18306;40.960;14.836;2023-03-16T14:55:57;13.50;79.20
31725;DHT22;18306;40.960;14.836;2023-03-16T14:58:26;13.60;80.90
31725;DHT22;18306;40.960;14.836;2023-03-16T15:00:53;13.60;81.00
31725;DHT22;18306;40.960;14.836;2023-03-16T15:03:27;13.50;80.40
31725;DHT22;18306;40.960;14.836;2023-03-16T15:05:56;13.40;80.20
31725;DHT22;18306;40.960;14.836;2023-03-16T15:08:25;13.60;81.10
31725;DHT22;18306;40.960;14.836;2023-03-16T15:10:54;13.60;80.50
31725;DHT22;18306;40.960;14.836;2023-03-16T15:13:22;13.60;80.10
31725;DHT22;18306;40.960;14.836;2023-03-16T15:16:19;13.40;79.30
31725;DHT22;18306;40.960;14.836;2023-03-16T15:18:47;13.60;81.70
31725;DHT22;18306;40.960;14.836;2023-03-16T15:21:17;13.70;80.10
31725;DHT22;18306;40.960;14.836;2023-03-16T15:23:46;13.80;80.80
31725;DHT22;18306;40.960;14.836;2023-03-16T15:26:15;13.60;82.00
31725;DHT22;18306;40.960;14.836;2023-03-16T15:28:42;13.50;83.00
31725;DHT22;18306;40.960;14.836;2023-03-16T15:31:12;13.40;83.00
31725;DHT22;18306;40.960;14.836;2023-03-16T15:33:42;13.40;82.20
31725;DHT22;18306;40.960;14.836;2023-03-16T15:36:20;13.00;82.50
31725;DHT22;18306;40.960;14.836;2023-03-16T15:38:50;12.80;82.30
31725;DHT22;18306;40.960;14.836;2023-03-16T15:41:18;12.90;83.60
31725;DHT22;18306;40.960;14.836;2023-03-16T15:43:46;13.10;84.10
31725;DHT22;18306;40.960;14.836;2023-03-16T15:46:13;13.20;83.80
31725;DHT22;18306;40.960;14.836;2023-03-16T15:48:40;13.40;85.10
31725;DHT22;18306;40.960;14.836;2023-03-16T15:51:23;13.50;84.60
31725;DHT22;18306;40.960;14.836;2023-03-16T15:53:57;13.40;83.90
31725;DHT22;18306;40.960;14.836;2023-03-16T15:56:26;13.10;84.10
31725;DHT22;18306;40.960;14.836;2023-03-16T15:58:57;13.00;84.80
31725;DHT22;18306;40.960;14.836;2023-03-16T16:01:30;12.80;84.70
31725;DHT22;18306;40.960;14.836;2023-03-16T16:04:00;12.70;85.50
31725;DHT22;18306;40.960;14.836;2023-03-16T16:06:28;12.80;86.10
31725;DHT22;18306;40.960;14.836;2023-03-16T16:08:56;13.00;86.30
31725;DHT22;18306;40.960;14.836;2023-03-16T16:11:25;13.00;85.50
31725;DHT22;18306;40.960;14.836;2023-03-16T16:13:55;12.90;86.10
31725;DHT22;18306;40.960;14.836;2023-03-16T16:16:23;12.90;86.70
31725;DHT22;18306;40.960;14.836;2023-03-16T16:18:53;12.90;86.60
31725;DHT22;18306;40.960;14.836;2023-03-16T16:21:25;12.90;87.50
31725;DHT22;18306;40.960;14.836;2023-03-16T16:23:55;12.90;87.20
31725;DHT22;18306;40.960;14.836;2023-03-16T16:28:52;12.70;87.00
31725;DHT22;18306;40.960;14.836;2023-03-16T16:31:20;12.50;86.90
31725;DHT22;18306;40.960;14.836;2023-03-16T16:33:58;12.40;87.60
31725;DHT22;18306;40.960;14.836;2023-03-16T16:36:32;12.30;88.20
31725;DHT22;18306;40.960;14.836;2023-03-16T16:38:59;12.40;89.30
31725;DHT22;18306;40.960;14.836;2023-03-16T16:41:28;12.60;88.30
31725;DHT22;18306;40.960;14.836;2023-03-16T16:44:17;12.50;88.60
31725;DHT22;18306;40.960;14.836;2023-03-16T16:46:47;12.20;88.70
31725;DHT22;18306;40.960;14.836;2023-03-16T16:49:20;12.20;89.20
31725;DHT22;18306;40.960;14.836;2023-03-16T16:51:48;12.10;90.00
31725;DHT22;18306;40.960;14.836;2023-03-16T16:54:27;12.20;89.70
31725;DHT22;18306;40.960;14.836;2023-03-16T16:56:56;12.40;89.40
31725;DHT22;18306;40.960;14.836;2023-03-16T16:59:35;12.30;88.90